sensor_id;sensor_type;location;lat;lon;timestamp;temperature;humidity
44851;DHT22;30583;48.714;9.386;2022-08-18T00:01:00;27.20;59.30
44851;DHT22;30583;48.714;9.386;2022-08-18T00:03:27;27.10;59.10
44851;DHT22;30583;48.714;9.386;2022-08-18T00:05:54;27.20;58.40
44851;DHT22;30583;48.714;9.386;2022-08-18T00:08:19;27.10;59.80
44851;DHT22;30583;48.714;9.386;2022-08-18T00:10:45;27.10;59.60
44851;DHT22;30583;48.714;9.386;2022-08-18T00:13:11;26.70;60.80
44851;DHT22;30583;48.714;9.386;2022-08-18T00:15:36;26.80;60.20
44851;DHT22;30583;48.714;9.386;2022-08-18T00:18:02;26.90;60.70
44851;DHT22;30583;48.714;9.386;2022-08-18T00:20:28;27.10;59.30
44851;DHT22;30583;48.714;9.386;2022-08-18T00:22:53;27.00;59.50
44851;DHT22;30583;48.714;9.386;2022-08-18T00:25:21;26.90;60.00
44851;DHT22;30583;48.714;9.386;2022-08-18T00:27:47;27.00;59.10
44851;DHT22;30583;48.714;9.386;2022-08-18T00:30:18;27.00;59.10
44851;DHT22;30583;48.714;9.386;2022-08-18T00:32:48;27.10;58.50
44851;DHT22;30583;48.714;9.386;2022-08-18T00:35:20;27.00;58.90
44851;DHT22;30583;48.714;9.386;2022-08-18T00:37:47;26.90;59.30
44851;DHT22;30583;48.714;9.386;2022-08-18T00:40:17;27.00;59.50
44851;DHT22;30583;48.714;9.386;2022-08-18T00:42:47;26.80;60.00
44851;DHT22;30583;48.714;9.386;2022-08-18T00:45:17;26.90;60.40
44851;DHT22;30583;48.714;9.386;2022-08-18T00:47:42;26.90;60.10
44851;DHT22;30583;48.714;9.386;2022-08-18T00:50:13;26.80;60.40
44851;DHT22;30583;48.714;9.386;2022-08-18T00:52:39;26.70;60.70
44851;DHT22;30583;48.714;9.386;2022-08-18T00:55:05;26.70;60.90
44851;DHT22;30583;48.714;9.386;2022-08-18T00:57:32;26.60;60.90
44851;DHT22;30583;48.714;9.386;2022-08-18T01:00:05;26.60;61.00
44851;DHT22;30583;48.714;9.386;2022-08-18T01:02:40;26.60;60.60
44851;DHT22;30583;48.714;9.386;2022-08-18T01:05:14;26.80;60.30
44851;DHT22;30583;48.714;9.386;2022-08-18T01:07:44;26.70;60.40
44851;DHT22;30583;48.714;9.386;2022-08-18T01:10:11;26.60;60.50
44851;DHT22;30583;48.714;9.386;2022-08-18T01:12:41;26.40;60.50
44851;DHT22;30583;48.714;9.386;2022-08-18T01:15:08;26.50;60.40
44851;DHT22;30583;48.714;9.386;2022-08-18T01:17:34;26.50;60.40
44851;DHT22;30583;48.714;9.386;2022-08-18T01:20:26;26.40;60.60
44851;DHT22;30583;48.714;9.386;2022-08-18T01:23:14;26.20;61.20
44851;DHT22;30583;48.714;9.386;2022-08-18T01:25:41;26.50;60.80
44851;DHT22;30583;48.714;9.386;2022-08-18T01:28:35;26.40;61.00
44851;DHT22;30583;48.714;9.386;2022-08-18T01:31:02;26.50;60.80
44851;DHT22;30583;48.714;9.386;2022-08-18T01:33:31;26.20;61.40
44851;DHT22;30583;48.714;9.386;2022-08-18T01:36:00;25.90;62.20
44851;DHT22;30583;48.714;9.386;2022-08-18T01:38:27;26.20;61.30
44851;DHT22;30583;48.714;9.386;2022-08-18T01:40:52;26.20;60.80
44851;DHT22;30583;48.714;9.386;2022-08-18T01:43:19;26.20;61.20
44851;DHT22;30583;48.714;9.386;2022-08-18T01:45:45;26.20;61.00
44851;DHT22;30583;48.714;9.386;2022-08-18T01:48:12;26.10;61.10
44851;DHT22;30583;48.714;9.386;2022-08-18T01:50:38;26.00;61.60
44851;DHT22;30583;48.714;9.386;2022-08-18T01:53:06;26.00;62.10
44851;DHT22;30583;48.714;9.386;2022-08-18T01:55:34;26.10;61.80
44851;DHT22;30583;48.714;9.386;2022-08-18T01:58:00;26.10;61.80
44851;DHT22;30583;48.714;9.386;2022-08-18T02:00:27;26.20;61.10
44851;DHT22;30583;48.714;9.386;2022-08-18T02:02:53;26.10;61.10
44851;DHT22;30583;48.714;9.386;2022-08-18T02:05:45;25.70;61.30
44851;DHT22;30583;48.714;9.386;2022-08-18T02:08:12;25.10;63.20
44851;DHT22;30583;48.714;9.386;2022-08-18T02:10:39;24.70;64.10
44851;DHT22;30583;48.714;9.386;2022-08-18T02:13:06;24.40;65.50
44851;DHT22;30583;48.714;9.386;2022-08-18T02:15:33;24.20;65.80
44851;DHT22;30583;48.714;9.386;2022-08-18T02:17:58;24.20;66.00
44851;DHT22;30583;48.714;9.386;2022-08-18T02:20:24;24.10;66.60
44851;DHT22;30583;48.714;9.386;2022-08-18T02:22:51;24.20;66.40
44851;DHT22;30583;48.714;9.386;2022-08-18T02:25:17;24.00;67.00
44851;DHT22;30583;48.714;9.386;2022-08-18T02:27:44;23.80;67.30
44851;DHT22;30583;48.714;9.386;2022-08-18T02:30:13;23.90;67.50
44851;DHT22;30583;48.714;9.386;2022-08-18T02:32:39;23.70;68.30
44851;DHT22;30583;48.714;9.386;2022-08-18T02:35:05;23.70;68.50
44851;DHT22;30583;48.714;9.386;2022-08-18T02:37:32;23.50;69.50
44851;DHT22;30583;48.714;9.386;2022-08-18T02:39:57;23.30;70.10
44851;DHT22;30583;48.714;9.386;2022-08-18T02:42:23;23.20;70.40
44851;DHT22;30583;48.714;9.386;2022-08-18T02:44:50;23.20;70.70
44851;DHT22;30583;48.714;9.386;2022-08-18T02:47:18;23.20;71.00
44851;DHT22;30583;48.714;9.386;2022-08-18T02:49:44;23.30;70.70
44851;DHT22;30583;48.714;9.386;2022-08-18T02:52:10;23.20;70.80
44851;DHT22;30583;48.714;9.386;2022-08-18T02:54:36;23.30;70.30
44851;DHT22;30583;48.714;9.386;2022-08-18T02:57:09;23.20;70.20
44851;DHT22;30583;48.714;9.386;2022-08-18T02:59:36;23.00;71.00
44851;DHT22;30583;48.714;9.386;2022-08-18T03:02:04;23.10;71.00
44851;DHT22;30583;48.714;9.386;2022-08-18T03:04:30;23.10;71.10
44851;DHT22;30583;48.714;9.386;2022-08-18T03:06:58;23.10;70.70
44851;DHT22;30583;48.714;9.386;2022-08-18T03:09:24;23.20;70.10
44851;DHT22;30583;48.714;9.386;2022-08-18T03:11:49;23.00;70.80
44851;DHT22;30583;48.714;9.386;2022-08-18T03:14:16;22.90;71.10
44851;DHT22;30583;48.714;9.386;2022-08-18T03:16:44;22.90;70.90
44851;DHT22;30583;48.714;9.386;2022-08-18T03:19:10;22.80;71.00
44851;DHT22;30583;48.714;9.386;2022-08-18T03:21:41;22.70;71.70
44851;DHT22;30583;48.714;9.386;2022-08-18T03:24:07;22.70;71.70
44851;DHT22;30583;48.714;9.386;2022-08-18T03:26:33;22.60;72.00
44851;DHT22;30583;48.714;9.386;2022-08-18T03:28:59;22.50;72.50
44851;DHT22;30583;48.714;9.386;2022-08-18T03:31:27;22.50;72.60
44851;DHT22;30583;48.714;9.386;2022-08-18T03:33:53;22.50;72.80
44851;DHT22;30583;48.714;9.386;2022-08-18T03:36:22;22.50;72.70
44851;DHT22;30583;48.714;9.386;2022-08-18T03:38:50;22.40;73.30
44851;DHT22;30583;48.714;9.386;2022-08-18T03:41:19;22.30;73.40
44851;DHT22;30583;48.714;9.386;2022-08-18T03:43:45;22.60;72.40
44851;DHT22;30583;48.714;9.386;2022-08-18T03:46:12;22.70;72.00
44851;DHT22;30583;48.714;9.386;2022-08-18T03:48:40;22.50;72.30
44851;DHT22;30583;48.714;9.386;2022-08-18T03:51:13;22.40;72.70
44851;DHT22;30583;48.714;9.386;2022-08-18T03:53:40;22.40;72.90
44851;DHT22;30583;48.714;9.386;2022-08-18T03:56:08;22.60;72.20
44851;DHT22;30583;48.714;9.386;2022-08-18T03:58:35;22.40;72.80
44851;DHT22;30583;48.714;9.386;2022-08-18T04:01:01;22.40;73.10
44851;DHT22;30583;48.714;9.386;2022-08-18T04:03:28;22.30;73.30
44851;DHT22;30583;48.714;9.386;2022-08-18T04:05:54;22.30;73.20
44851;DHT22;30583;48.714;9.386;2022-08-18T04:08:20;22.20;73.60
44851;DHT22;30583;48.714;9.386;2022-08-18T04:10:46;22.30;73.10
44851;DHT22;30583;48.714;9.386;2022-08-18T04:13:11;22.30;73.10
44851;DHT22;30583;48.714;9.386;2022-08-18T04:15:37;22.10;73.70
44851;DHT22;30583;48.714;9.386;2022-08-18T04:18:03;21.90;73.20
44851;DHT22;30583;48.714;9.386;2022-08-18T04:20:30;21.90;72.90
44851;DHT22;30583;48.714;9.386;2022-08-18T04:22:59;21.90;72.30
44851;DHT22;30583;48.714;9.386;2022-08-18T04:25:25;22.00;72.40
44851;DHT22;30583;48.714;9.386;2022-08-18T04:27:51;21.90;72.70
44851;DHT22;30583;48.714;9.386;2022-08-18T04:30:22;21.90;72.90
44851;DHT22;30583;48.714;9.386;2022-08-18T04:32:48;21.80;73.50
44851;DHT22;30583;48.714;9.386;2022-08-18T04:35:14;21.70;73.50
44851;DHT22;30583;48.714;9.386;2022-08-18T04:37:40;21.70;72.70
44851;DHT22;30583;48.714;9.386;2022-08-18T04:40:06;21.70;72.20
44851;DHT22;30583;48.714;9.386;2022-08-18T04:42:32;21.90;72.30
44851;DHT22;30583;48.714;9.386;2022-08-18T04:44:57;21.80;72.50
44851;DHT22;30583;48.714;9.386;2022-08-18T04:47:23;22.00;71.00
44851;DHT22;30583;48.714;9.386;2022-08-18T04:49:48;22.00;71.30
44851;DHT22;30583;48.714;9.386;2022-08-18T04:52:15;22.20;71.40
44851;DHT22;30583;48.714;9.386;2022-08-18T04:55:00;22.30;70.60
44851;DHT22;30583;48.714;9.386;2022-08-18T04:57:26;22.40;70.60
44851;DHT22;30583;48.714;9.386;2022-08-18T04:59:52;22.40;70.60
44851;DHT22;30583;48.714;9.386;2022-08-18T05:02:19;22.40;71.20
44851;DHT22;30583;48.714;9.386;2022-08-18T05:04:46;22.40;71.00
44851;DHT22;30583;48.714;9.386;2022-08-18T05:07:13;22.60;68.20
44851;DHT22;30583;48.714;9.386;2022-08-18T05:09:40;23.50;61.60
44851;DHT22;30583;48.714;9.386;2022-08-18T05:12:10;23.90;61.10
44851;DHT22;30583;48.714;9.386;2022-08-18T05:14:38;24.00;62.00
44851;DHT22;30583;48.714;9.386;2022-08-18T05:17:04;23.70;63.80
44851;DHT22;30583;48.714;9.386;2022-08-18T05:19:30;23.80;63.70
44851;DHT22;30583;48.714;9.386;2022-08-18T05:21:57;23.20;65.40
44851;DHT22;30583;48.714;9.386;2022-08-18T05:24:23;23.60;64.50
44851;DHT22;30583;48.714;9.386;2022-08-18T05:26:51;23.70;64.30
44851;DHT22;30583;48.714;9.386;2022-08-18T05:29:18;22.90;67.20
44851;DHT22;30583;48.714;9.386;2022-08-18T05:31:47;23.20;66.00
44851;DHT22;30583;48.714;9.386;2022-08-18T05:34:14;23.70;64.80
44851;DHT22;30583;48.714;9.386;2022-08-18T05:44:36;23.70;64.20
44851;DHT22;30583;48.714;9.386;2022-08-18T05:47:12;23.20;66.00
44851;DHT22;30583;48.714;9.386;2022-08-18T05:49:38;23.30;65.00
44851;DHT22;30583;48.714;9.386;2022-08-18T05:52:07;23.60;64.10
44851;DHT22;30583;48.714;9.386;2022-08-18T05:54:55;23.40;64.40
44851;DHT22;30583;48.714;9.386;2022-08-18T05:57:47;23.80;63.20
44851;DHT22;30583;48.714;9.386;2022-08-18T06:00:20;23.90;62.90
44851;DHT22;30583;48.714;9.386;2022-08-18T06:02:57;24.00;63.10
44851;DHT22;30583;48.714;9.386;2022-08-18T06:05:29;23.80;63.60
44851;DHT22;30583;48.714;9.386;2022-08-18T06:08:05;22.70;68.40
44851;DHT22;30583;48.714;9.386;2022-08-18T06:10:32;22.20;70.30
44851;DHT22;30583;48.714;9.386;2022-08-18T06:13:00;22.30;70.30
44851;DHT22;30583;48.714;9.386;2022-08-18T06:31:25;23.00;68.50
44851;DHT22;30583;48.714;9.386;2022-08-18T06:39:51;22.50;70.60
44851;DHT22;30583;48.714;9.386;2022-08-18T06:42:18;22.40;71.00
44851;DHT22;30583;48.714;9.386;2022-08-18T06:44:52;22.20;72.00
44851;DHT22;30583;48.714;9.386;2022-08-18T06:52:25;22.70;70.20
44851;DHT22;30583;48.714;9.386;2022-08-18T06:54:51;22.70;69.80
44851;DHT22;30583;48.714;9.386;2022-08-18T06:59:57;22.80;69.00
44851;DHT22;30583;48.714;9.386;2022-08-18T07:02:50;22.90;68.60
44851;DHT22;30583;48.714;9.386;2022-08-18T07:05:28;23.10;67.90
44851;DHT22;30583;48.714;9.386;2022-08-18T07:08:09;23.10;68.20
44851;DHT22;30583;48.714;9.386;2022-08-18T07:10:40;22.90;68.30
44851;DHT22;30583;48.714;9.386;2022-08-18T07:15:32;22.80;69.30
44851;DHT22;30583;48.714;9.386;2022-08-18T07:18:06;22.60;70.50
44851;DHT22;30583;48.714;9.386;2022-08-18T07:20:50;22.20;71.90
44851;DHT22;30583;48.714;9.386;2022-08-18T07:23:27;22.60;70.80
44851;DHT22;30583;48.714;9.386;2022-08-18T07:26:01;22.30;71.90
44851;DHT22;30583;48.714;9.386;2022-08-18T07:28:38;22.20;71.70
44851;DHT22;30583;48.714;9.386;2022-08-18T07:33:42;22.40;71.90
44851;DHT22;30583;48.714;9.386;2022-08-18T07:36:09;22.60;71.40
44851;DHT22;30583;48.714;9.386;2022-08-18T07:38:40;21.90;72.80
44851;DHT22;30583;48.714;9.386;2022-08-18T07:41:18;21.80;73.00
44851;DHT22;30583;48.714;9.386;2022-08-18T07:47:07;21.70;73.20
44851;DHT22;30583;48.714;9.386;2022-08-18T07:49:07;22.20;72.00
44851;DHT22;30583;48.714;9.386;2022-08-18T07:51:48;21.80;72.70
44851;DHT22;30583;48.714;9.386;2022-08-18T07:57:24;22.40;70.90
44851;DHT22;30583;48.714;9.386;2022-08-18T08:16:42;22.70;69.80
44851;DHT22;30583;48.714;9.386;2022-08-18T08:22:03;22.60;70.10
44851;DHT22;30583;48.714;9.386;2022-08-18T08:24:42;22.70;69.50
44851;DHT22;30583;48.714;9.386;2022-08-18T08:30:23;23.20;67.00
44851;DHT22;30583;48.714;9.386;2022-08-18T08:35:50;24.10;63.80
44851;DHT22;30583;48.714;9.386;2022-08-18T08:38:22;24.10;64.40
44851;DHT22;30583;48.714;9.386;2022-08-18T08:41:00;24.20;64.00
44851;DHT22;30583;48.714;9.386;2022-08-18T08:43:39;24.40;64.10
44851;DHT22;30583;48.714;9.386;2022-08-18T08:46:22;24.40;64.10
44851;DHT22;30583;48.714;9.386;2022-08-18T08:48:59;23.80;65.70
44851;DHT22;30583;48.714;9.386;2022-08-18T08:54:19;23.10;68.70
44851;DHT22;30583;48.714;9.386;2022-08-18T08:56:49;23.20;68.50
44851;DHT22;30583;48.714;9.386;2022-08-18T08:59:18;23.60;67.80
44851;DHT22;30583;48.714;9.386;2022-08-18T09:02:05;23.30;68.40
44851;DHT22;30583;48.714;9.386;2022-08-18T09:04:54;24.00;66.70
44851;DHT22;30583;48.714;9.386;2022-08-18T09:07:58;24.30;64.90
44851;DHT22;30583;48.714;9.386;2022-08-18T09:24:39;24.70;63.70
44851;DHT22;30583;48.714;9.386;2022-08-18T09:27:13;24.20;65.60
44851;DHT22;30583;48.714;9.386;2022-08-18T09:29:53;24.30;65.10
44851;DHT22;30583;48.714;9.386;2022-08-18T09:37:45;25.00;63.70
44851;DHT22;30583;48.714;9.386;2022-08-18T09:40:14;25.00;63.00
44851;DHT22;30583;48.714;9.386;2022-08-18T09:43:30;24.70;64.10
44851;DHT22;30583;48.714;9.386;2022-08-18T09:45:59;24.50;65.40
44851;DHT22;30583;48.714;9.386;2022-08-18T09:51:14;25.20;62.80
44851;DHT22;30583;48.714;9.386;2022-08-18T09:56:13;25.20;62.90
44851;DHT22;30583;48.714;9.386;2022-08-18T09:58:57;25.10;62.70
44851;DHT22;30583;48.714;9.386;2022-08-18T10:06:40;24.50;66.40
44851;DHT22;30583;48.714;9.386;2022-08-18T10:17:39;24.00;69.00
44851;DHT22;30583;48.714;9.386;2022-08-18T10:22:59;24.00;66.80
44851;DHT22;30583;48.714;9.386;2022-08-18T10:25:42;24.70;69.00
44851;DHT22;30583;48.714;9.386;2022-08-18T10:31:14;25.70;65.20
44851;DHT22;30583;48.714;9.386;2022-08-18T10:34:04;26.20;62.60
44851;DHT22;30583;48.714;9.386;2022-08-18T10:39:13;24.70;64.00
44851;DHT22;30583;48.714;9.386;2022-08-18T10:42:02;24.70;65.70
44851;DHT22;30583;48.714;9.386;2022-08-18T10:44:31;25.00;66.50
44851;DHT22;30583;48.714;9.386;2022-08-18T10:46:59;25.30;63.90
44851;DHT22;30583;48.714;9.386;2022-08-18T10:49:27;25.70;63.10
44851;DHT22;30583;48.714;9.386;2022-08-18T11:00:10;25.70;63.00
44851;DHT22;30583;48.714;9.386;2022-08-18T11:05:24;25.90;64.00
44851;DHT22;30583;48.714;9.386;2022-08-18T11:07:56;26.00;62.20
44851;DHT22;30583;48.714;9.386;2022-08-18T11:18:44;26.00;61.60
44851;DHT22;30583;48.714;9.386;2022-08-18T11:26:57;25.40;61.70
44851;DHT22;30583;48.714;9.386;2022-08-18T11:29:39;25.40;61.90
44851;DHT22;30583;48.714;9.386;2022-08-18T11:32:08;25.80;61.30
44851;DHT22;30583;48.714;9.386;2022-08-18T11:35:43;26.10;60.50
44851;DHT22;30583;48.714;9.386;2022-08-18T11:37:56;26.10;60.80
44851;DHT22;30583;48.714;9.386;2022-08-18T11:40:33;26.00;61.10
44851;DHT22;30583;48.714;9.386;2022-08-18T11:45:56;26.30;60.60
44851;DHT22;30583;48.714;9.386;2022-08-18T11:48:34;26.60;59.50
44851;DHT22;30583;48.714;9.386;2022-08-18T11:51:09;26.60;59.70
44851;DHT22;30583;48.714;9.386;2022-08-18T11:53:37;26.40;60.40
44851;DHT22;30583;48.714;9.386;2022-08-18T11:58:44;25.90;59.50
44851;DHT22;30583;48.714;9.386;2022-08-18T12:04:15;26.20;61.50
44851;DHT22;30583;48.714;9.386;2022-08-18T12:12:18;25.80;59.90
44851;DHT22;30583;48.714;9.386;2022-08-18T12:17:26;25.50;60.30
44851;DHT22;30583;48.714;9.386;2022-08-18T12:19:52;25.50;60.20
44851;DHT22;30583;48.714;9.386;2022-08-18T12:22:21;25.50;59.60
44851;DHT22;30583;48.714;9.386;2022-08-18T12:24:48;25.80;59.50
44851;DHT22;30583;48.714;9.386;2022-08-18T12:27:16;26.00;58.90
44851;DHT22;30583;48.714;9.386;2022-08-18T12:29:42;25.80;58.40
44851;DHT22;30583;48.714;9.386;2022-08-18T12:32:08;25.70;59.30
44851;DHT22;30583;48.714;9.386;2022-08-18T12:34:34;26.00;59.30
44851;DHT22;30583;48.714;9.386;2022-08-18T12:37:00;26.40;58.30
44851;DHT22;30583;48.714;9.386;2022-08-18T12:39:26;26.50;57.90
44851;DHT22;30583;48.714;9.386;2022-08-18T12:41:53;26.70;56.60
44851;DHT22;30583;48.714;9.386;2022-08-18T12:44:19;26.70;56.80
44851;DHT22;30583;48.714;9.386;2022-08-18T12:46:45;27.10;56.20
44851;DHT22;30583;48.714;9.386;2022-08-18T12:49:18;26.90;55.90
44851;DHT22;30583;48.714;9.386;2022-08-18T12:51:45;27.00;55.80
44851;DHT22;30583;48.714;9.386;2022-08-18T12:54:11;26.50;55.50
44851;DHT22;30583;48.714;9.386;2022-08-18T12:56:39;26.50;57.30
44851;DHT22;30583;48.714;9.386;2022-08-18T12:59:06;26.70;56.10
44851;DHT22;30583;48.714;9.386;2022-08-18T13:01:34;26.80;55.20
44851;DHT22;30583;48.714;9.386;2022-08-18T13:03:59;27.20;54.30
44851;DHT22;30583;48.714;9.386;2022-08-18T13:06:26;27.10;55.40
44851;DHT22;30583;48.714;9.386;2022-08-18T13:08:52;27.20;55.00
44851;DHT22;30583;48.714;9.386;2022-08-18T13:11:21;27.10;55.10
44851;DHT22;30583;48.714;9.386;2022-08-18T13:13:47;27.40;53.70
44851;DHT22;30583;48.714;9.386;2022-08-18T13:16:13;27.90;53.80
44851;DHT22;30583;48.714;9.386;2022-08-18T13:18:39;27.80;52.70
44851;DHT22;30583;48.714;9.386;2022-08-18T13:21:08;27.60;53.20
44851;DHT22;30583;48.714;9.386;2022-08-18T13:23:35;27.80;53.50
44851;DHT22;30583;48.714;9.386;2022-08-18T13:26:02;28.60;52.10
44851;DHT22;30583;48.714;9.386;2022-08-18T13:28:30;28.90;51.20
44851;DHT22;30583;48.714;9.386;2022-08-18T13:30:56;29.10;50.00
44851;DHT22;30583;48.714;9.386;2022-08-18T13:33:21;28.70;51.30
44851;DHT22;30583;48.714;9.386;2022-08-18T13:35:47;28.50;51.10
44851;DHT22;30583;48.714;9.386;2022-08-18T13:38:15;29.10;50.10
44851;DHT22;30583;48.714;9.386;2022-08-18T13:40:42;29.00;50.10
44851;DHT22;30583;48.714;9.386;2022-08-18T13:43:09;28.60;49.30
44851;DHT22;30583;48.714;9.386;2022-08-18T13:45:36;28.20;51.40
44851;DHT22;30583;48.714;9.386;2022-08-18T13:48:01;29.30;49.40
44851;DHT22;30583;48.714;9.386;2022-08-18T13:50:27;30.30;47.20
44851;DHT22;30583;48.714;9.386;2022-08-18T13:52:53;30.20;46.80
44851;DHT22;30583;48.714;9.386;2022-08-18T13:55:19;30.20;46.90
44851;DHT22;30583;48.714;9.386;2022-08-18T13:57:45;30.00;46.90
44851;DHT22;30583;48.714;9.386;2022-08-18T14:00:19;30.00;46.70
44851;DHT22;30583;48.714;9.386;2022-08-18T14:02:46;30.30;46.40
44851;DHT22;30583;48.714;9.386;2022-08-18T14:05:13;30.50;45.60
44851;DHT22;30583;48.714;9.386;2022-08-18T14:07:40;29.70;47.60
44851;DHT22;30583;48.714;9.386;2022-08-18T14:10:07;29.80;48.30
44851;DHT22;30583;48.714;9.386;2022-08-18T14:12:35;29.60;48.20
44851;DHT22;30583;48.714;9.386;2022-08-18T14:15:04;30.00;47.70
44851;DHT22;30583;48.714;9.386;2022-08-18T14:17:31;30.30;46.00
44851;DHT22;30583;48.714;9.386;2022-08-18T14:19:58;30.50;45.50
44851;DHT22;30583;48.714;9.386;2022-08-18T14:22:43;30.80;45.10
44851;DHT22;30583;48.714;9.386;2022-08-18T14:25:27;30.40;44.80
44851;DHT22;30583;48.714;9.386;2022-08-18T14:28:12;30.00;45.00
44851;DHT22;30583;48.714;9.386;2022-08-18T14:30:38;29.90;46.60
44851;DHT22;30583;48.714;9.386;2022-08-18T14:33:05;29.80;47.60
44851;DHT22;30583;48.714;9.386;2022-08-18T14:35:32;29.30;48.00
44851;DHT22;30583;48.714;9.386;2022-08-18T14:37:58;29.70;48.40
44851;DHT22;30583;48.714;9.386;2022-08-18T14:40:25;29.70;48.40
44851;DHT22;30583;48.714;9.386;2022-08-18T14:42:50;29.60;48.00
44851;DHT22;30583;48.714;9.386;2022-08-18T14:45:16;29.90;47.40
44851;DHT22;30583;48.714;9.386;2022-08-18T14:47:42;30.00;47.60
44851;DHT22;30583;48.714;9.386;2022-08-18T14:50:08;30.20;46.60
44851;DHT22;30583;48.714;9.386;2022-08-18T14:52:39;30.10;46.40
44851;DHT22;30583;48.714;9.386;2022-08-18T14:55:06;30.10;46.40
44851;DHT22;30583;48.714;9.386;2022-08-18T14:57:32;30.00;47.00
44851;DHT22;30583;48.714;9.386;2022-08-18T14:59:57;29.60;47.20
44851;DHT22;30583;48.714;9.386;2022-08-18T15:02:23;29.50;46.60
44851;DHT22;30583;48.714;9.386;2022-08-18T15:04:49;29.60;47.00
44851;DHT22;30583;48.714;9.386;2022-08-18T15:07:14;29.70;46.50
44851;DHT22;30583;48.714;9.386;2022-08-18T15:09:40;29.70;46.10
44851;DHT22;30583;48.714;9.386;2022-08-18T15:12:06;29.70;46.70
44851;DHT22;30583;48.714;9.386;2022-08-18T15:14:33;29.90;46.10
44851;DHT22;30583;48.714;9.386;2022-08-18T15:17:01;29.80;45.40
44851;DHT22;30583;48.714;9.386;2022-08-18T15:19:28;29.80;45.30
44851;DHT22;30583;48.714;9.386;2022-08-18T15:21:53;29.90;45.40
44851;DHT22;30583;48.714;9.386;2022-08-18T15:24:39;29.90;45.30
44851;DHT22;30583;48.714;9.386;2022-08-18T15:27:30;29.90;45.50
44851;DHT22;30583;48.714;9.386;2022-08-18T15:29:56;29.80;46.40
44851;DHT22;30583;48.714;9.386;2022-08-18T15:32:22;29.90;46.00
44851;DHT22;30583;48.714;9.386;2022-08-18T15:34:48;29.90;45.80
44851;DHT22;30583;48.714;9.386;2022-08-18T15:37:14;30.10;44.70
44851;DHT22;30583;48.714;9.386;2022-08-18T15:39:41;29.90;45.00
44851;DHT22;30583;48.714;9.386;2022-08-18T15:42:10;29.70;45.00
44851;DHT22;30583;48.714;9.386;2022-08-18T15:44:36;29.80;45.40
44851;DHT22;30583;48.714;9.386;2022-08-18T15:47:02;29.80;45.60
44851;DHT22;30583;48.714;9.386;2022-08-18T15:49:29;29.80;45.20
44851;DHT22;30583;48.714;9.386;2022-08-18T15:51:56;29.80;45.00
44851;DHT22;30583;48.714;9.386;2022-08-18T15:54:21;29.60;45.20
44851;DHT22;30583;48.714;9.386;2022-08-18T15:56:47;29.50;45.40
44851;DHT22;30583;48.714;9.386;2022-08-18T15:59:13;29.40;46.90
44851;DHT22;30583;48.714;9.386;2022-08-18T16:01:38;29.30;46.60
44851;DHT22;30583;48.714;9.386;2022-08-18T16:04:05;29.30;47.50
44851;DHT22;30583;48.714;9.386;2022-08-18T16:06:33;29.20;47.60
44851;DHT22;30583;48.714;9.386;2022-08-18T16:09:00;29.30;49.10
44851;DHT22;30583;48.714;9.386;2022-08-18T16:11:26;29.50;48.90
44851;DHT22;30583;48.714;9.386;2022-08-18T16:13:52;29.60;48.60
44851;DHT22;30583;48.714;9.386;2022-08-18T16:16:22;29.60;48.80
44851;DHT22;30583;48.714;9.386;2022-08-18T16:18:48;29.60;49.00
44851;DHT22;30583;48.714;9.386;2022-08-18T16:21:17;29.50;49.80
44851;DHT22;30583;48.714;9.386;2022-08-18T16:23:44;29.50;49.90
44851;DHT22;30583;48.714;9.386;2022-08-18T16:26:12;29.40;48.90
44851;DHT22;30583;48.714;9.386;2022-08-18T16:28:40;29.40;49.90
44851;DHT22;30583;48.714;9.386;2022-08-18T16:31:06;29.40;49.20
44851;DHT22;30583;48.714;9.386;2022-08-18T16:33:33;29.30;48.20
44851;DHT22;30583;48.714;9.386;2022-08-18T16:36:04;29.40;47.30
44851;DHT22;30583;48.714;9.386;2022-08-18T16:38:30;29.40;47.10
44851;DHT22;30583;48.714;9.386;2022-08-18T16:40:55;28.60;48.20
44851;DHT22;30583;48.714;9.386;2022-08-18T16:43:21;27.80;49.60
44851;DHT22;30583;48.714;9.386;2022-08-18T16:45:47;27.60;50.00
44851;DHT22;30583;48.714;9.386;2022-08-18T16:48:13;27.50;50.50
44851;DHT22;30583;48.714;9.386;2022-08-18T16:50:39;27.20;51.30
44851;DHT22;30583;48.714;9.386;2022-08-18T16:53:07;27.30;51.00
44851;DHT22;30583;48.714;9.386;2022-08-18T16:55:33;27.60;50.50
44851;DHT22;30583;48.714;9.386;2022-08-18T16:57:59;27.20;51.20
44851;DHT22;30583;48.714;9.386;2022-08-18T17:00:43;27.10;51.10
44851;DHT22;30583;48.714;9.386;2022-08-18T17:03:27;27.20;51.20
44851;DHT22;30583;48.714;9.386;2022-08-18T17:06:14;27.10;51.70
44851;DHT22;30583;48.714;9.386;2022-08-18T17:08:41;27.30;51.40
44851;DHT22;30583;48.714;9.386;2022-08-18T17:11:10;28.10;50.00
44851;DHT22;30583;48.714;9.386;2022-08-18T17:13:37;28.10;48.70
44851;DHT22;30583;48.714;9.386;2022-08-18T17:16:04;28.50;48.40
44851;DHT22;30583;48.714;9.386;2022-08-18T17:18:30;28.50;48.90
44851;DHT22;30583;48.714;9.386;2022-08-18T17:21:00;28.50;48.30
44851;DHT22;30583;48.714;9.386;2022-08-18T17:23:26;28.10;49.00
44851;DHT22;30583;48.714;9.386;2022-08-18T17:25:52;27.90;49.70
44851;DHT22;30583;48.714;9.386;2022-08-18T17:28:19;28.20;49.40
44851;DHT22;30583;48.714;9.386;2022-08-18T17:30:48;28.40;48.30
44851;DHT22;30583;48.714;9.386;2022-08-18T17:33:20;28.30;47.70
44851;DHT22;30583;48.714;9.386;2022-08-18T17:35:47;28.20;49.40
44851;DHT22;30583;48.714;9.386;2022-08-18T17:38:25;28.50;48.90
44851;DHT22;30583;48.714;9.386;2022-08-18T17:40:55;28.20;49.50
44851;DHT22;30583;48.714;9.386;2022-08-18T17:43:29;28.00;50.50
44851;DHT22;30583;48.714;9.386;2022-08-18T17:46:30;28.20;51.40
44851;DHT22;30583;48.714;9.386;2022-08-18T17:49:16;28.10;51.10
44851;DHT22;30583;48.714;9.386;2022-08-18T17:51:48;27.70;51.70
44851;DHT22;30583;48.714;9.386;2022-08-18T17:54:29;26.70;54.50
44851;DHT22;30583;48.714;9.386;2022-08-18T17:57:01;26.90;53.90
44851;DHT22;30583;48.714;9.386;2022-08-18T17:59:40;26.70;55.00
44851;DHT22;30583;48.714;9.386;2022-08-18T18:02:14;27.30;53.40
44851;DHT22;30583;48.714;9.386;2022-08-18T18:04:43;27.40;53.80
44851;DHT22;30583;48.714;9.386;2022-08-18T18:07:31;27.20;54.80
44851;DHT22;30583;48.714;9.386;2022-08-18T18:10:12;27.20;54.50
44851;DHT22;30583;48.714;9.386;2022-08-18T18:12:41;27.70;53.50
44851;DHT22;30583;48.714;9.386;2022-08-18T18:15:19;27.20;55.00
44851;DHT22;30583;48.714;9.386;2022-08-18T18:17:54;28.00;53.20
44851;DHT22;30583;48.714;9.386;2022-08-18T18:20:36;27.50;53.90
44851;DHT22;30583;48.714;9.386;2022-08-18T18:23:19;26.60;56.30
44851;DHT22;30583;48.714;9.386;2022-08-18T18:25:45;26.40;55.60
44851;DHT22;30583;48.714;9.386;2022-08-18T18:28:26;26.70;56.70
44851;DHT22;30583;48.714;9.386;2022-08-18T18:30:53;26.50;55.90
44851;DHT22;30583;48.714;9.386;2022-08-18T18:33:26;27.40;54.10